createdAt,value
2022-10-30T00:01:36.112Z,6.05
2022-10-30T00:04:04.318Z,7.30
2022-10-30T00:06:32.308Z,6.28
2022-10-30T00:09:01.790Z,6.40
2022-10-30T00:11:31.392Z,6.97
2022-10-30T00:13:59.433Z,6.80
2022-10-30T00:16:27.821Z,6.50
2022-10-30T00:18:55.901Z,6.55
2022-10-30T00:21:24.291Z,6.40
2022-10-30T00:23:54.257Z,6.50
2022-10-30T00:26:23.858Z,7.20
2022-10-30T00:28:55.069Z,6.38
2022-10-30T00:31:23.886Z,6.72
2022-10-30T00:33:52.920Z,6.40
2022-10-30T00:36:21.529Z,7.32
2022-10-30T00:38:53.728Z,7.20
2022-10-30T00:41:24.486Z,6.95
2022-10-30T00:43:57.487Z,6.57
2022-10-30T00:46:32.374Z,7.22
2022-10-30T00:49:05.251Z,7.30
2022-10-30T00:51:35.329Z,6.20
2022-10-30T00:54:05.870Z,7.13
2022-10-30T00:56:34.212Z,7.32
2022-10-30T00:59:12.343Z,6.38
2022-10-30T01:01:43.603Z,7.20
2022-10-30T01:04:13.759Z,7.28
2022-10-30T01:06:44.245Z,7.05
2022-10-30T01:09:12.518Z,6.80
2022-10-30T01:11:41.286Z,7.05
2022-10-30T01:14:13.016Z,6.85
2022-10-30T01:17:05.861Z,6.95
2022-10-30T01:19:43.275Z,6.50
2022-10-30T01:22:31.439Z,6.88
2022-10-30T01:25:10.901Z,6.82
2022-10-30T01:27:48.122Z,6.90
2022-10-30T01:30:28.447Z,6.35
2022-10-30T01:33:10.506Z,7.22
2022-10-30T01:35:45.421Z,6.15
2022-10-30T01:38:18.885Z,7.28
2022-10-30T01:40:46.848Z,7.30
2022-10-30T01:43:15.749Z,7.72
2022-10-30T01:46:11.824Z,7.53
2022-10-30T01:49:00.959Z,7.00
2022-10-30T01:51:42.923Z,7.65
2022-10-30T01:54:24.691Z,6.90
2022-10-30T01:57:05.576Z,7.80
2022-10-30T01:59:38.645Z,7.75
2022-10-30T02:02:08.634Z,7.30
2022-10-30T02:04:37.862Z,7.80
2022-10-30T02:07:06.293Z,7.53
2022-10-30T02:09:34.372Z,7.70
2022-10-30T02:12:04.418Z,7.55
2022-10-30T02:14:37.397Z,7.57
2022-10-30T02:17:09.430Z,6.93
2022-10-30T02:19:37.693Z,8.02
2022-10-30T02:22:08.212Z,7.25
2022-10-30T02:24:37.072Z,7.82
2022-10-30T02:27:05.680Z,8.13
2022-10-30T02:29:34.059Z,8.23
2022-10-30T02:32:22.440Z,8.23
2022-10-30T02:35:10.864Z,7.78
2022-10-30T02:37:40.249Z,7.75
2022-10-30T02:40:09.401Z,7.82
2022-10-30T02:42:37.695Z,7.70
2022-10-30T02:45:07.272Z,7.20
2022-10-30T02:47:35.219Z,7.75
2022-10-30T02:50:03.183Z,7.85
2022-10-30T02:52:31.383Z,8.73
2022-10-30T02:55:08.235Z,7.90
2022-10-30T02:57:38.058Z,8.13
2022-10-30T03:00:07.236Z,7.65
2022-10-30T03:02:35.691Z,8.13
2022-10-30T03:05:05.064Z,7.85
2022-10-30T03:07:33.243Z,7.25
2022-10-30T03:10:03.678Z,8.65
2022-10-30T03:12:31.951Z,8.43
2022-10-30T03:14:59.801Z,7.63
2022-10-30T03:17:29.264Z,7.82
2022-10-30T03:19:57.244Z,8.38
2022-10-30T03:22:25.527Z,8.38
2022-10-30T03:24:53.653Z,8.18
2022-10-30T03:27:23.272Z,7.57
2022-10-30T03:29:51.247Z,8.02
2022-10-30T03:32:19.288Z,7.50
2022-10-30T03:35:10.668Z,8.27
2022-10-30T03:37:52.551Z,7.70
2022-10-30T03:40:20.518Z,7.50
2022-10-30T03:42:50.330Z,8.35
2022-10-30T03:45:18.568Z,8.13
2022-10-30T03:47:48.021Z,8.25
2022-10-30T03:50:16.250Z,8.23
2022-10-30T03:52:46.789Z,7.30
2022-10-30T03:55:15.322Z,7.35
2022-10-30T03:57:43.269Z,7.88
2022-10-30T04:00:16.546Z,8.02
2022-10-30T04:02:48.346Z,7.95
2022-10-30T04:05:19.406Z,7.88
2022-10-30T04:07:48.024Z,7.63
2022-10-30T04:10:20.930Z,8.57
2022-10-30T04:12:52.837Z,7.72
2022-10-30T04:15:22.390Z,7.57
2022-10-30T04:17:52.419Z,8.23
2022-10-30T04:20:20.826Z,8.27
2022-10-30T04:22:51.171Z,8.73
2022-10-30T04:25:19.530Z,7.82
2022-10-30T04:27:49.668Z,8.50
2022-10-30T04:30:17.762Z,8.32
2022-10-30T04:32:50.516Z,8.00
2022-10-30T04:35:20.937Z,7.97
2022-10-30T04:37:54.102Z,8.52
2022-10-30T04:40:22.247Z,8.00
2022-10-30T04:42:52.348Z,7.88
2022-10-30T04:45:25.417Z,7.88
2022-10-30T04:48:03.020Z,7.75
2022-10-30T04:50:31.807Z,7.40
2022-10-30T04:53:01.521Z,7.05
2022-10-30T04:55:31.086Z,8.43
2022-10-30T04:58:00.688Z,8.32
2022-10-30T05:00:29.276Z,8.27
2022-10-30T05:03:00.650Z,8.40
2022-10-30T05:05:29.247Z,7.90
2022-10-30T05:07:57.676Z,8.98
2022-10-30T05:10:25.936Z,8.30
2022-10-30T05:12:54.624Z,7.68
2022-10-30T05:15:22.972Z,7.82
2022-10-30T05:17:53.799Z,8.40
2022-10-30T05:20:23.265Z,7.90
2022-10-30T05:22:56.189Z,8.07
2022-10-30T05:25:24.351Z,10.13
2022-10-30T05:27:52.622Z,8.68
2022-10-30T05:30:20.519Z,9.30
2022-10-30T05:32:48.395Z,8.25
2022-10-30T05:35:16.423Z,8.40
2022-10-30T05:37:45.826Z,8.82
2022-10-30T05:40:13.884Z,8.63
2022-10-30T05:42:46.542Z,9.32
2022-10-30T05:45:14.720Z,8.35
2022-10-30T05:47:42.778Z,8.35
2022-10-30T05:50:12.343Z,9.25
2022-10-30T05:52:40.208Z,9.68
2022-10-30T05:55:10.360Z,9.10
2022-10-30T05:57:38.256Z,8.43
2022-10-30T06:00:07.476Z,8.40
2022-10-30T06:02:35.519Z,8.43
2022-10-30T06:05:03.433Z,8.20
2022-10-30T06:07:31.491Z,8.82
2022-10-30T06:09:59.536Z,8.35
2022-10-30T06:12:28.764Z,7.93
2022-10-30T06:14:56.672Z,8.18
2022-10-30T06:17:24.693Z,7.95
2022-10-30T06:19:52.572Z,8.80
2022-10-30T06:22:20.442Z,9.15
2022-10-30T06:24:48.292Z,8.35
2022-10-30T06:27:16.212Z,9.02
2022-10-30T06:29:45.864Z,8.68
2022-10-30T06:32:13.738Z,8.63
2022-10-30T06:34:42.812Z,8.13
2022-10-30T06:37:10.754Z,8.10
2022-10-30T06:39:40.468Z,8.18
2022-10-30T06:42:10.846Z,8.55
2022-10-30T06:44:38.780Z,7.40
2022-10-30T06:47:08.224Z,8.20
2022-10-30T06:49:36.189Z,8.23
2022-10-30T06:52:04.100Z,8.38
2022-10-30T06:54:32.019Z,7.88
2022-10-30T06:56:59.871Z,7.80
2022-10-30T06:59:27.874Z,7.65
2022-10-30T07:02:00.015Z,8.10
2022-10-30T07:04:32.079Z,7.82
2022-10-30T07:06:59.983Z,7.65
2022-10-30T07:09:27.815Z,8.90
2022-10-30T07:11:56.910Z,7.35
2022-10-30T07:14:25.189Z,8.75
2022-10-30T07:16:55.105Z,8.32
2022-10-30T07:19:23.191Z,8.82
2022-10-30T07:21:52.490Z,8.07
2022-10-30T07:24:20.485Z,8.55
2022-10-30T07:26:48.335Z,9.43
2022-10-30T07:29:16.224Z,8.60
2022-10-30T07:31:57.550Z,9.00
2022-10-30T07:34:29.885Z,8.23
2022-10-30T07:36:59.223Z,8.70
2022-10-30T07:39:27.138Z,8.40
2022-10-30T07:41:55.004Z,8.95
2022-10-30T07:44:22.904Z,8.85
2022-10-30T07:46:50.894Z,9.25
2022-10-30T07:49:18.759Z,7.82
2022-10-30T07:51:46.617Z,9.40
2022-10-30T07:54:15.973Z,8.60
2022-10-30T07:56:43.834Z,9.43
2022-10-30T07:59:11.708Z,9.10
2022-10-30T08:01:39.658Z,8.77
2022-10-30T08:04:08.247Z,8.90
2022-10-30T08:06:36.257Z,8.90
2022-10-30T08:09:04.263Z,8.50
2022-10-30T08:11:33.510Z,9.02
2022-10-30T08:14:01.672Z,8.90
2022-10-30T08:16:29.628Z,9.32
2022-10-30T08:18:57.707Z,8.68
2022-10-30T08:21:25.720Z,9.10
2022-10-30T08:23:53.693Z,8.13
2022-10-30T08:26:21.571Z,8.73
2022-10-30T08:28:50.848Z,8.88
2022-10-30T08:31:18.776Z,9.32
2022-10-30T08:33:46.697Z,9.82
2022-10-30T08:36:14.632Z,9.23
2022-10-30T08:38:42.517Z,9.70
2022-10-30T08:41:10.512Z,9.05
2022-10-30T08:43:38.994Z,8.98
2022-10-30T08:46:08.296Z,8.70
2022-10-30T08:48:36.204Z,9.27
2022-10-30T08:51:04.221Z,8.93
2022-10-30T08:53:32.111Z,8.43
2022-10-30T08:56:00.018Z,8.90
2022-10-30T08:58:28.114Z,8.35
2022-10-30T09:01:01.239Z,8.88
2022-10-30T09:03:30.941Z,9.35
2022-10-30T09:06:01.232Z,9.80
2022-10-30T09:08:29.546Z,9.88
2022-10-30T09:10:58.067Z,9.30
2022-10-30T09:13:26.485Z,9.70
2022-10-30T09:15:54.385Z,9.02
2022-10-30T09:18:22.251Z,9.30
2022-10-30T09:20:51.479Z,10.07
2022-10-30T09:23:19.532Z,9.18
2022-10-30T09:25:47.584Z,9.23
2022-10-30T09:28:15.552Z,9.43
2022-10-30T09:30:43.449Z,9.48
2022-10-30T09:33:11.648Z,9.88
2022-10-30T09:35:39.502Z,9.40
2022-10-30T09:38:10.270Z,9.27
2022-10-30T09:40:50.014Z,9.18
2022-10-30T09:43:28.012Z,9.27
2022-10-30T09:46:17.111Z,8.80
2022-10-30T09:49:10.748Z,9.20
2022-10-30T09:51:54.357Z,8.93
2022-10-30T09:54:36.290Z,8.82
2022-10-30T09:57:11.164Z,8.55
2022-10-30T09:59:52.929Z,8.57
2022-10-30T10:02:33.677Z,8.60
2022-10-30T10:05:06.902Z,9.48
2022-10-30T10:07:39.885Z,9.00
2022-10-30T10:10:19.099Z,8.77
2022-10-30T10:12:48.988Z,8.98
2022-10-30T10:15:30.089Z,8.80
2022-10-30T10:18:02.400Z,8.88
2022-10-30T10:20:36.288Z,9.38
2022-10-30T10:23:12.712Z,9.82
2022-10-30T10:25:44.904Z,8.50
2022-10-30T10:28:26.145Z,8.43
2022-10-30T10:30:59.323Z,8.07
2022-10-30T10:33:46.347Z,8.77
2022-10-30T10:36:25.228Z,9.65
2022-10-30T10:39:04.359Z,8.43
2022-10-30T10:41:53.746Z,8.38
2022-10-30T10:44:33.921Z,7.68
2022-10-30T10:47:16.565Z,8.00
2022-10-30T10:49:59.319Z,7.78
2022-10-30T10:52:35.943Z,7.55
2022-10-30T10:55:07.903Z,8.65
2022-10-30T10:57:40.190Z,8.13
2022-10-30T11:00:14.749Z,8.65
2022-10-30T11:02:47.050Z,9.02
2022-10-30T11:05:25.702Z,8.45
2022-10-30T11:07:58.130Z,8.45
2022-10-30T11:10:26.475Z,8.93
2022-10-30T11:12:56.120Z,8.40
2022-10-30T11:15:41.162Z,7.70
2022-10-30T11:18:10.484Z,8.20
2022-10-30T11:20:44.028Z,7.20
2022-10-30T11:23:38.828Z,6.65
2022-10-30T11:26:30.613Z,7.03
2022-10-30T11:29:03.333Z,6.10
2022-10-30T11:31:35.335Z,6.43
2022-10-30T11:34:33.074Z,6.68
2022-10-30T11:37:01.092Z,6.32
2022-10-30T11:39:30.460Z,6.35
2022-10-30T11:42:02.317Z,7.40
2022-10-30T11:44:35.951Z,6.20
2022-10-30T11:47:05.339Z,7.18
2022-10-30T11:49:45.951Z,6.10
2022-10-30T11:52:16.359Z,7.13
2022-10-30T11:54:49.216Z,7.00
2022-10-30T11:57:23.340Z,6.55
2022-10-30T12:00:00.622Z,6.15
2022-10-30T12:02:40.749Z,6.47
2022-10-30T12:05:32.124Z,5.63
2022-10-30T12:08:21.503Z,6.45
2022-10-30T12:10:58.987Z,6.45
2022-10-30T12:13:28.909Z,6.68
2022-10-30T12:16:11.491Z,6.85
2022-10-30T12:18:40.310Z,6.38
2022-10-30T12:21:08.945Z,5.78
2022-10-30T12:23:37.073Z,5.97
2022-10-30T12:26:11.986Z,5.50
2022-10-30T12:28:40.614Z,5.47
2022-10-30T12:31:13.479Z,4.57
2022-10-30T12:33:44.926Z,4.70
2022-10-30T12:36:16.226Z,5.35
2022-10-30T12:38:48.267Z,5.50
2022-10-30T12:41:19.775Z,5.00
2022-10-30T12:43:55.093Z,5.43
2022-10-30T12:46:34.237Z,5.82
2022-10-30T12:49:10.538Z,5.72
2022-10-30T12:51:47.310Z,4.97
2022-10-30T12:54:23.192Z,5.78
2022-10-30T12:56:57.091Z,5.68
2022-10-30T12:59:32.886Z,5.97
2022-10-30T13:02:14.102Z,5.82
2022-10-30T13:04:45.941Z,6.67
2022-10-30T13:07:24.098Z,6.38
2022-10-30T13:10:04.411Z,7.28
2022-10-30T13:12:36.026Z,6.28
2022-10-30T13:15:07.651Z,6.03
2022-10-30T13:17:36.957Z,6.45
2022-10-30T13:20:11.930Z,6.03
2022-10-30T13:22:48.245Z,6.13
2022-10-30T13:25:23.257Z,5.10
2022-10-30T13:27:55.908Z,5.97
2022-10-30T13:30:28.556Z,4.97
2022-10-30T13:33:08.636Z,5.10
2022-10-30T13:35:41.583Z,5.28
2022-10-30T13:38:26.128Z,5.25
2022-10-30T13:41:00.560Z,5.20
2022-10-30T13:43:40.052Z,5.60
2022-10-30T13:46:39.104Z,5.07
2022-10-30T13:49:36.624Z,4.93
2022-10-30T13:52:13.063Z,4.35
2022-10-30T13:54:46.199Z,3.25
2022-10-30T13:57:20.690Z,3.28
2022-10-30T13:59:59.653Z,2.95
2022-10-30T14:02:40.761Z,3.00
2022-10-30T14:05:21.085Z,3.20
2022-10-30T14:07:54.723Z,3.63
2022-10-30T14:10:40.644Z,3.45
2022-10-30T14:13:17.273Z,3.90
2022-10-30T14:15:46.714Z,4.18
2022-10-30T14:18:59.883Z,4.10
2022-10-30T14:21:38.800Z,4.40
2022-10-30T14:24:19.119Z,4.88
2022-10-30T14:26:53.239Z,4.55
2022-10-30T14:29:43.099Z,4.20
2022-10-30T14:32:42.312Z,4.28
2022-10-30T14:35:39.245Z,4.18
2022-10-30T14:38:28.189Z,4.35
2022-10-30T14:41:17.489Z,3.55
2022-10-30T14:44:04.688Z,4.15
2022-10-30T14:46:39.117Z,3.97
2022-10-30T14:49:28.016Z,3.65
2022-10-30T14:52:05.945Z,3.35
2022-10-30T14:54:58.974Z,3.67
2022-10-30T14:57:48.342Z,3.47
2022-10-30T15:00:40.746Z,3.20
2022-10-30T15:03:42.126Z,4.30
2022-10-30T15:06:22.972Z,3.35
2022-10-30T15:09:03.920Z,3.17
2022-10-30T15:12:07.480Z,3.03
2022-10-30T15:14:53.486Z,2.85
2022-10-30T15:17:29.061Z,3.30
2022-10-30T15:19:58.001Z,3.10
2022-10-30T15:22:29.788Z,3.33
2022-10-30T15:24:59.413Z,3.08
2022-10-30T15:27:29.593Z,3.63
2022-10-30T15:30:04.053Z,2.92
2022-10-30T15:32:32.611Z,3.53
2022-10-30T15:35:02.875Z,3.13
2022-10-30T15:37:31.691Z,3.55
2022-10-30T15:40:17.504Z,3.15
2022-10-30T15:42:48.719Z,3.05
2022-10-30T15:45:20.248Z,3.38
2022-10-30T15:47:53.374Z,2.78
2022-10-30T15:50:21.805Z,2.88
2022-10-30T15:52:50.830Z,3.80
2022-10-30T15:55:30.183Z,3.95
2022-10-30T15:58:12.946Z,4.32
2022-10-30T16:00:41.430Z,4.15
2022-10-30T16:03:18.362Z,3.92
2022-10-30T16:05:46.554Z,4.90
2022-10-30T16:08:20.903Z,3.55
2022-10-30T16:10:49.744Z,4.15
2022-10-30T16:13:21.071Z,4.13
2022-10-30T16:15:50.196Z,4.10
2022-10-30T16:18:22.074Z,4.30
2022-10-30T16:20:52.476Z,4.20
2022-10-30T16:23:21.292Z,4.53
2022-10-30T16:25:54.202Z,3.90
2022-10-30T16:28:32.228Z,4.18
2022-10-30T16:31:03.646Z,6.25
2022-10-30T16:33:34.981Z,5.90
2022-10-30T16:36:05.137Z,4.60
2022-10-30T16:38:37.678Z,4.45
2022-10-30T16:41:07.206Z,4.10
2022-10-30T16:43:36.980Z,3.88
2022-10-30T16:46:33.785Z,3.15
2022-10-30T16:49:04.619Z,3.33
2022-10-30T16:51:32.793Z,3.45
2022-10-30T16:54:01.138Z,3.03
2022-10-30T16:56:31.516Z,3.30
2022-10-30T16:59:13.347Z,4.40
2022-10-30T17:01:41.499Z,4.15
2022-10-30T17:04:16.061Z,3.55
2022-10-30T17:06:46.013Z,3.67
2022-10-30T17:09:22.493Z,4.05
2022-10-30T17:12:05.148Z,3.40
2022-10-30T17:14:44.275Z,3.90
2022-10-30T17:17:28.504Z,3.67
2022-10-30T17:20:07.971Z,3.42
2022-10-30T17:22:36.092Z,2.67
2022-10-30T17:25:17.255Z,2.60
2022-10-30T17:27:48.019Z,2.22
2022-10-30T17:30:36.050Z,1.60
2022-10-30T17:33:22.473Z,1.55
2022-10-30T17:35:50.910Z,1.13
2022-10-30T17:39:05.565Z,1.30
2022-10-30T17:41:33.621Z,1.40
2022-10-30T17:44:02.362Z,1.70
2022-10-30T17:46:31.766Z,1.10
2022-10-30T17:49:00.090Z,1.40
2022-10-30T17:51:29.266Z,2.08
2022-10-30T17:53:57.395Z,1.30
2022-10-30T17:56:28.792Z,1.63
2022-10-30T17:58:56.849Z,1.25
2022-10-30T18:01:26.476Z,1.13
2022-10-30T18:03:56.901Z,1.90
2022-10-30T18:06:27.299Z,1.10
2022-10-30T18:08:56.104Z,1.00
2022-10-30T18:11:27.192Z,1.63
2022-10-30T18:13:59.714Z,1.05
2022-10-30T18:16:30.454Z,0.90
2022-10-30T18:18:59.804Z,1.20
2022-10-30T18:21:28.333Z,0.90
2022-10-30T18:23:56.694Z,1.15
2022-10-30T18:26:26.961Z,1.02
2022-10-30T18:28:55.275Z,0.90
2022-10-30T18:31:24.783Z,1.23
2022-10-30T18:33:52.983Z,0.95
2022-10-30T18:36:24.230Z,0.90
2022-10-30T18:38:53.913Z,0.82
2022-10-30T18:41:36.381Z,0.90
2022-10-30T18:44:05.739Z,0.80
2022-10-30T18:46:38.147Z,0.90
2022-10-30T18:49:07.202Z,1.13
2022-10-30T18:51:36.944Z,1.75
2022-10-30T18:54:13.735Z,0.73
2022-10-30T18:56:42.515Z,0.75
2022-10-30T18:59:14.403Z,0.90
2022-10-30T19:01:42.843Z,1.17
2022-10-30T19:04:12.151Z,1.17
2022-10-30T19:06:45.246Z,1.05
2022-10-30T19:09:16.265Z,0.82
2022-10-30T19:11:44.743Z,1.30
2022-10-30T19:14:15.347Z,0.73
2022-10-30T19:16:43.828Z,1.13
2022-10-30T19:19:11.811Z,0.63
2022-10-30T19:21:43.772Z,1.13
2022-10-30T19:24:34.538Z,0.93
2022-10-30T19:27:02.914Z,1.10
2022-10-30T19:29:31.191Z,1.15
2022-10-30T19:31:59.521Z,1.00
2022-10-30T19:34:28.477Z,0.85
2022-10-30T19:36:59.681Z,1.02
2022-10-30T19:39:28.514Z,0.93
2022-10-30T19:41:56.746Z,1.02
2022-10-30T19:44:45.127Z,1.15
2022-10-30T19:47:13.552Z,0.73
2022-10-30T19:49:42.160Z,0.80
2022-10-30T19:52:16.036Z,0.93
2022-10-30T19:54:44.114Z,0.77
2022-10-30T19:57:15.331Z,1.00
2022-10-30T19:59:45.807Z,1.10
2022-10-30T20:02:14.308Z,1.10
2022-10-30T20:04:43.100Z,1.30
2022-10-30T20:07:14.012Z,1.10
2022-10-30T20:09:42.048Z,1.00
2022-10-30T20:12:10.181Z,1.00
2022-10-30T20:14:59.278Z,0.90
2022-10-30T20:17:29.303Z,1.00
2022-10-30T20:20:06.028Z,1.08
2022-10-30T20:22:35.578Z,0.90
2022-10-30T20:25:03.519Z,1.10
2022-10-30T20:27:33.305Z,0.90
2022-10-30T20:30:06.785Z,1.00
2022-10-30T20:32:35.284Z,1.15
2022-10-30T20:35:07.461Z,0.88
2022-10-30T20:37:41.626Z,1.00
2022-10-30T20:40:16.095Z,1.25
2022-10-30T20:42:45.417Z,1.50
2022-10-30T20:45:19.919Z,1.40
2022-10-30T20:47:48.229Z,1.25
2022-10-30T20:50:20.875Z,1.10
2022-10-30T20:52:51.192Z,1.50
2022-10-30T20:55:21.193Z,1.30
2022-10-30T20:57:51.568Z,1.58
2022-10-30T21:00:21.012Z,1.40
2022-10-30T21:02:51.261Z,1.20
2022-10-30T21:08:11.980Z,1.33
2022-10-30T21:10:42.028Z,1.40
2022-10-30T21:13:11.258Z,1.60
2022-10-30T21:15:40.172Z,1.20
2022-10-30T21:18:10.620Z,1.33
2022-10-30T21:20:39.756Z,1.30
2022-10-30T21:23:10.013Z,1.30
2022-10-30T21:25:39.796Z,1.70
2022-10-30T21:28:07.992Z,2.10
2022-10-30T21:30:36.668Z,1.45
2022-10-30T21:33:05.782Z,1.30
2022-10-30T21:35:33.712Z,1.35
2022-10-30T21:38:03.698Z,1.88
2022-10-30T21:40:31.986Z,1.60
2022-10-30T21:43:04.199Z,1.85
2022-10-30T21:45:53.771Z,1.58
2022-10-30T21:48:25.399Z,1.70
2022-10-30T21:50:53.999Z,1.80
2022-10-30T21:53:23.144Z,1.45
2022-10-30T21:55:51.393Z,1.60
2022-10-30T21:58:22.648Z,1.80
2022-10-30T22:00:51.713Z,1.60
2022-10-30T22:03:20.911Z,1.65
2022-10-30T22:05:49.041Z,1.88
2022-10-30T22:08:18.797Z,1.80
2022-10-30T22:10:46.788Z,1.85
2022-10-30T22:13:17.965Z,1.70
2022-10-30T22:16:05.451Z,1.60
2022-10-30T22:18:33.714Z,1.80
2022-10-30T22:21:06.579Z,1.50
2022-10-30T22:23:37.752Z,2.00
2022-10-30T22:26:08.207Z,1.33
2022-10-30T22:28:37.814Z,1.42
2022-10-30T22:31:13.373Z,1.43
2022-10-30T22:34:01.890Z,1.45
2022-10-30T22:36:32.252Z,1.42
2022-10-30T22:39:02.085Z,1.48
2022-10-30T22:41:34.781Z,1.40
2022-10-30T22:44:07.935Z,1.50
2022-10-30T22:46:41.414Z,1.20
2022-10-30T22:49:09.828Z,1.07
2022-10-30T22:51:40.169Z,1.30
2022-10-30T22:54:14.705Z,1.27
2022-10-30T22:56:43.350Z,1.17
2022-10-30T22:59:14.076Z,1.17
2022-10-30T23:01:44.027Z,1.07
2022-10-30T23:04:36.019Z,1.50
2022-10-30T23:07:04.576Z,1.33
2022-10-30T23:09:32.664Z,1.30
2022-10-30T23:12:02.258Z,1.33
2022-10-30T23:14:31.254Z,1.20
2022-10-30T23:17:01.070Z,1.20
2022-10-30T23:19:30.821Z,1.27
2022-10-30T23:22:00.757Z,1.30
2022-10-30T23:24:28.911Z,1.20
2022-10-30T23:26:56.862Z,1.30
2022-10-30T23:29:24.810Z,1.45
2022-10-30T23:31:52.877Z,1.40
2022-10-30T23:34:23.247Z,1.67
2022-10-30T23:36:51.446Z,1.40
2022-10-30T23:39:19.653Z,1.40
2022-10-30T23:41:49.402Z,1.50
2022-10-30T23:44:17.773Z,1.90
2022-10-30T23:46:47.422Z,1.40
2022-10-30T23:49:15.665Z,1.50
2022-10-30T23:51:45.895Z,1.67
2022-10-30T23:54:13.865Z,1.43
2022-10-30T23:56:42.463Z,1.70
2022-10-30T23:59:11.471Z,1.27
